Time;durP1;ratioP1;P1;durP2;ratioP2;P2;SDS_P1;SDS_P2;PMS_P1;PMS_P2;Temp;Humidity;BMP_temperature;BMP_pressure;BME280_temperature;BME280_humidity;BME280_pressure;Samples;Min_cycle;Max_cycle;Signal;HPM_P1;HPM_P2
2021/01/02 00:02:38;;;;;;;26.30;14.40;;;3.00;84.90;;;;;;5053080;28;20492;-76
2021/01/02 00:05:21;;;;;;;28.47;15.50;;;2.90;85.00;;;;;;5015969;28;20429;-75
2021/01/02 00:08:00;;;;;;;29.37;13.90;;;3.00;85.20;;;;;;5046144;28;20447;-73
2021/01/02 00:10:55;;;;;;;26.27;12.37;;;3.00;85.10;;;;;;5039682;28;20389;-75
2021/01/02 00:13:23;;;;;;;27.40;12.53;;;3.00;85.10;;;;;;5027998;28;20476;-75
2021/01/02 00:16:24;;;;;;;26.43;13.40;;;2.90;85.00;;;;;;5038115;28;20837;-75
2021/01/02 00:19:11;;;;;;;32.20;14.10;;;2.90;85.10;;;;;;5043826;28;20405;-75
2021/01/02 00:21:52;;;;;;;25.53;13.00;;;2.90;85.40;;;;;;5038278;28;20444;-74
2021/01/02 00:24:38;;;;;;;27.57;13.10;;;2.90;85.50;;;;;;5042567;28;20421;-75
2021/01/02 00:27:38;;;;;;;24.30;13.30;;;2.90;85.70;;;;;;5038494;28;20401;-76
2021/01/02 00:30:11;;;;;;;22.47;13.10;;;2.90;85.70;;;;;;5029901;28;20448;-77
2021/01/02 00:32:53;;;;;;;23.87;12.63;;;2.90;85.90;;;;;;5047360;28;20456;-75
2021/01/02 00:35:23;;;;;;;25.57;15.27;;;2.90;85.80;;;;;;5044037;28;20428;-75
2021/01/02 00:38:05;;;;;;;24.40;14.97;;;2.90;85.90;;;;;;5040056;28;20405;-74
2021/01/02 00:40:34;;;;;;;24.63;14.83;;;2.90;85.90;;;;;;5044249;28;20940;-77
2021/01/02 00:43:04;;;;;;;20.70;14.07;;;2.90;85.90;;;;;;5041633;28;20474;-75
2021/01/02 00:45:34;;;;;;;28.13;14.50;;;2.90;86.00;;;;;;5038507;28;20416;-76
2021/01/02 00:48:04;;;;;;;24.47;15.03;;;2.90;86.80;;;;;;5037621;28;20436;-74
2021/01/02 00:50:31;;;;;;;27.40;14.33;;;2.90;86.20;;;;;;5037464;28;20423;-74
2021/01/02 00:53:00;;;;;;;23.47;14.93;;;2.80;86.20;;;;;;5035622;28;20477;-72
2021/01/02 00:55:36;;;;;;;26.03;16.60;;;2.90;86.30;;;;;;5021598;28;20739;-73
2021/01/02 00:58:07;;;;;;;31.37;13.93;;;2.80;86.30;;;;;;5035661;28;20439;-73
2021/01/02 01:00:40;;;;;;;33.47;15.67;;;2.90;86.50;;;;;;5044020;28;20408;-73
2021/01/02 01:03:51;;;;;;;31.20;16.57;;;2.90;86.40;;;;;;5040952;28;20433;-73
2021/01/02 01:06:21;;;;;;;31.23;15.17;;;2.90;86.50;;;;;;5028691;28;20440;-74
2021/01/02 01:08:53;;;;;;;28.83;13.67;;;2.80;86.50;;;;;;5040204;28;20475;-73
2021/01/02 01:11:44;;;;;;;31.60;14.63;;;2.90;86.70;;;;;;5043140;28;20421;-73
2021/01/02 01:14:10;;;;;;;25.30;13.40;;;2.90;86.90;;;;;;5049740;28;20452;-70
2021/01/02 01:16:44;;;;;;;23.93;14.50;;;2.80;86.80;;;;;;5037455;28;20535;-70
2021/01/02 01:19:15;;;;;;;31.23;16.93;;;2.80;86.70;;;;;;5036554;28;20202;-71
2021/01/02 01:21:44;;;;;;;30.80;13.90;;;2.80;87.00;;;;;;5036795;28;20417;-70
2021/01/02 01:24:23;;;;;;;24.47;14.10;;;2.90;87.10;;;;;;5038006;28;20444;-70
2021/01/02 01:27:01;;;;;;;28.27;15.50;;;2.90;87.20;;;;;;5037013;28;20905;-71
2021/01/02 01:29:36;;;;;;;30.13;15.83;;;2.80;87.00;;;;;;5037300;28;20421;-71
2021/01/02 01:32:05;;;;;;;28.70;15.33;;;2.80;87.20;;;;;;5034663;28;20952;-69
2021/01/02 01:34:33;;;;;;;25.67;15.00;;;2.80;87.20;;;;;;5035894;28;20413;-71
2021/01/02 01:37:06;;;;;;;24.53;14.53;;;2.80;87.30;;;;;;5034223;28;20494;-70
2021/01/02 01:39:34;;;;;;;29.90;15.07;;;2.80;87.50;;;;;;5041178;28;20463;-71
2021/01/02 01:42:05;;;;;;;27.17;14.27;;;2.80;87.30;;;;;;5036773;28;20424;-69
2021/01/02 01:44:51;;;;;;;27.40;14.17;;;2.80;87.40;;;;;;5035993;28;20514;-71
2021/01/02 01:47:39;;;;;;;34.97;15.60;;;2.70;87.30;;;;;;5037759;28;20417;-72
2021/01/02 01:50:27;;;;;;;20.90;12.50;;;2.70;87.20;;;;;;5033473;28;20528;-69
2021/01/02 01:53:24;;;;;;;23.43;12.30;;;2.70;87.30;;;;;;5033104;28;20543;-69
2021/01/02 01:55:57;;;;;;;26.17;14.90;;;2.70;87.30;;;;;;5034566;28;20401;-71
2021/01/02 01:58:37;;;;;;;22.40;12.87;;;2.70;87.40;;;;;;5033702;28;20444;-69
2021/01/02 02:01:04;;;;;;;24.20;15.70;;;2.70;87.60;;;;;;5032692;28;20920;-71
2021/01/02 02:03:55;;;;;;;29.67;13.90;;;2.70;87.60;;;;;;5031667;28;20739;-71
2021/01/02 02:06:29;;;;;;;32.80;14.90;;;2.70;87.90;;;;;;5032314;28;20432;-70
2021/01/02 02:09:01;;;;;;;26.67;13.20;;;2.70;87.80;;;;;;5032226;28;20409;-70
2021/01/02 02:11:42;;;;;;;31.13;15.37;;;2.70;87.70;;;;;;5031240;28;20409;-69
2021/01/02 02:14:16;;;;;;;23.20;13.23;;;2.60;87.70;;;;;;5032087;28;20416;-70
2021/01/02 02:16:56;;;;;;;26.90;13.80;;;2.50;87.90;;;;;;5032234;28;20534;-69
2021/01/02 02:20:05;;;;;;;28.43;14.40;;;2.40;88.30;;;;;;5031947;28;20410;-69
2021/01/02 02:22:35;;;;;;;23.60;13.37;;;2.30;88.90;;;;;;5009025;28;20449;-69
2021/01/02 02:25:03;;;;;;;21.03;13.23;;;2.20;89.30;;;;;;5029356;28;20422;-69
2021/01/02 02:27:29;;;;;;;30.03;15.93;;;2.20;89.90;;;;;;5031825;28;20606;-69
2021/01/02 02:30:04;;;;;;;24.00;13.20;;;2.20;90.00;;;;;;5031979;28;20417;-71
2021/01/02 02:32:34;;;;;;;32.50;14.53;;;2.20;90.10;;;;;;5031547;28;20464;-69
2021/01/02 02:35:07;;;;;;;29.80;14.90;;;2.20;90.00;;;;;;5031612;28;20937;-68
2021/01/02 02:37:36;;;;;;;30.80;14.30;;;2.30;90.00;;;;;;5032046;28;20780;-69
2021/01/02 02:40:03;;;;;;;25.63;13.53;;;2.30;90.00;;;;;;5032075;28;20416;-70
2021/01/02 02:42:31;;;;;;;26.63;14.30;;;2.30;90.00;;;;;;5030957;28;20445;-69
2021/01/02 02:44:59;;;;;;;27.83;14.03;;;2.30;90.00;;;;;;5029674;28;20918;-69
2021/01/02 02:47:27;;;;;;;27.77;15.43;;;2.30;90.00;;;;;;5031236;28;20448;-69
2021/01/02 02:49:58;;;;;;;28.43;13.40;;;2.40;90.10;;;;;;5031503;28;20409;-68
2021/01/02 02:52:46;;;;;;;31.07;13.77;;;2.40;90.00;;;;;;5030845;28;20830;-69
2021/01/02 02:55:13;;;;;;;25.73;13.17;;;2.40;89.90;;;;;;5031667;28;20451;-69
2021/01/02 02:57:49;;;;;;;32.10;14.33;;;2.50;89.90;;;;;;5031139;28;20742;-69
2021/01/02 03:00:17;;;;;;;30.57;13.27;;;2.50;89.90;;;;;;5030851;28;20450;-69
2021/01/02 03:02:46;;;;;;;24.30;12.17;;;2.50;89.90;;;;;;5030567;28;20425;-70
2021/01/02 03:05:14;;;;;;;21.23;12.80;;;2.50;89.80;;;;;;5029738;28;20502;-69
2021/01/02 03:07:50;;;;;;;29.73;12.80;;;2.50;89.80;;;;;;5030858;28;20493;-70
2021/01/02 03:10:20;;;;;;;30.97;13.53;;;2.50;89.70;;;;;;5030769;28;20417;-69
2021/01/02 03:12:53;;;;;;;26.80;14.43;;;2.50;89.80;;;;;;5030967;28;20453;-69
2021/01/02 03:15:22;;;;;;;26.13;13.40;;;2.50;89.60;;;;;;5031013;28;20453;-70
2021/01/02 03:17:49;;;;;;;26.80;14.63;;;2.60;89.90;;;;;;5030584;28;20456;-70
2021/01/02 03:20:16;;;;;;;28.70;14.60;;;2.60;89.80;;;;;;5028503;28;20405;-69
2021/01/02 03:22:47;;;;;;;22.27;12.77;;;2.60;89.60;;;;;;5030593;28;20844;-70
2021/01/02 03:25:15;;;;;;;26.90;13.13;;;2.60;89.70;;;;;;5030478;28;20497;-70
2021/01/02 03:27:41;;;;;;;25.97;13.83;;;2.60;89.60;;;;;;5029027;28;20401;-70
2021/01/02 03:30:14;;;;;;;23.97;14.73;;;2.60;89.30;;;;;;5029164;28;20830;-68
2021/01/02 03:32:41;;;;;;;28.30;14.40;;;2.60;89.50;;;;;;5029933;28;20453;-69
2021/01/02 03:35:09;;;;;;;19.57;11.90;;;2.70;89.60;;;;;;5030486;28;20408;-69
2021/01/02 03:37:37;;;;;;;29.17;13.73;;;2.70;89.50;;;;;;5030631;28;20412;-70
2021/01/02 03:40:05;;;;;;;20.87;11.20;;;2.70;89.70;;;;;;5030860;28;20916;-71
2021/01/02 03:42:30;;;;;;;25.40;13.07;;;2.70;89.60;;;;;;5030333;28;20429;-71
2021/01/02 03:44:56;;;;;;;23.07;14.10;;;2.70;89.80;;;;;;5030881;28;20977;-72
2021/01/02 03:47:22;;;;;;;21.77;12.63;;;2.70;89.80;;;;;;5030676;28;20208;-71
2021/01/02 03:49:47;;;;;;;25.13;12.23;;;2.70;89.60;;;;;;5030751;28;20609;-71
2021/01/02 03:52:13;;;;;;;25.93;13.57;;;2.80;89.60;;;;;;5030282;28;20324;-70
2021/01/02 03:54:39;;;;;;;23.00;12.43;;;2.80;89.60;;;;;;5045429;28;20167;-71
2021/01/02 03:57:04;;;;;;;32.30;13.97;;;2.80;89.60;;;;;;5029997;28;20158;-71
2021/01/02 03:59:30;;;;;;;23.07;13.17;;;2.80;89.40;;;;;;5030092;28;20174;-71
2021/01/02 04:01:57;;;;;;;26.77;15.07;;;2.80;89.40;;;;;;5029001;28;20661;-70
2021/01/02 04:04:24;;;;;;;25.93;13.57;;;2.80;89.50;;;;;;5028098;28;20170;-70
2021/01/02 04:06:52;;;;;;;19.87;11.33;;;2.70;89.40;;;;;;5029969;28;20417;-70
2021/01/02 04:09:19;;;;;;;24.07;13.17;;;2.70;89.30;;;;;;5030138;28;20409;-70
2021/01/02 04:11:46;;;;;;;29.30;14.80;;;2.70;89.40;;;;;;5029918;28;20460;-71
2021/01/02 04:14:12;;;;;;;26.80;14.60;;;2.70;89.40;;;;;;5029365;28;20456;-71
2021/01/02 04:16:39;;;;;;;27.27;14.73;;;2.70;89.50;;;;;;5030026;28;20413;-71
2021/01/02 04:19:05;;;;;;;29.73;15.50;;;2.70;89.50;;;;;;5029936;28;20459;-71
2021/01/02 04:21:31;;;;;;;25.23;13.63;;;2.70;89.70;;;;;;5029759;28;20941;-69
2021/01/02 04:23:57;;;;;;;28.03;15.60;;;2.70;89.60;;;;;;5027698;28;20452;-70
2021/01/02 04:26:24;;;;;;;30.53;13.97;;;2.60;89.60;;;;;;5029640;28;20471;-71
2021/01/02 04:28:51;;;;;;;23.03;13.53;;;2.60;89.70;;;;;;5029555;28;20244;-70
2021/01/02 04:31:18;;;;;;;25.47;14.43;;;2.70;89.80;;;;;;5029296;28;20417;-71
2021/01/02 04:33:44;;;;;;;27.17;13.97;;;2.70;89.80;;;;;;5026920;28;20484;-70
2021/01/02 04:36:14;;;;;;;27.03;15.00;;;2.70;89.50;;;;;;5029442;28;20776;-70
2021/01/02 04:38:40;;;;;;;28.40;12.50;;;2.80;89.30;;;;;;5029455;28;20227;-71
2021/01/02 04:41:06;;;;;;;21.10;12.60;;;2.80;89.10;;;;;;5029678;28;20460;-68
2021/01/02 04:43:32;;;;;;;22.47;13.57;;;2.80;88.80;;;;;;5029515;28;20429;-70
2021/01/02 04:46:00;;;;;;;24.13;13.60;;;2.80;88.70;;;;;;5029593;28;20175;-71
2021/01/02 04:48:27;;;;;;;22.57;12.47;;;2.90;88.80;;;;;;5027743;28;20523;-70
2021/01/02 04:50:53;;;;;;;28.53;13.50;;;2.80;88.50;;;;;;5029129;28;20428;-71
2021/01/02 04:53:20;;;;;;;30.43;13.80;;;2.90;88.60;;;;;;5028886;28;20521;-72
2021/01/02 04:55:46;;;;;;;26.57;11.93;;;2.80;88.50;;;;;;5029509;28;20496;-70
2021/01/02 04:58:18;;;;;;;20.43;12.27;;;2.80;88.40;;;;;;5027692;28;20431;-70
2021/01/02 05:00:46;;;;;;;27.47;14.67;;;2.90;88.50;;;;;;5029496;28;20631;-70
2021/01/02 05:03:11;;;;;;;25.43;12.53;;;2.80;88.40;;;;;;5029061;28;20748;-70
2021/01/02 05:05:37;;;;;;;26.67;13.50;;;2.80;88.40;;;;;;5029178;28;20409;-70
2021/01/02 05:08:04;;;;;;;22.70;12.73;;;2.80;88.50;;;;;;5028134;28;20727;-70
2021/01/02 05:10:29;;;;;;;23.70;12.20;;;2.90;88.50;;;;;;5029350;28;20794;-71
2021/01/02 05:13:15;;;;;;;29.93;12.40;;;2.90;88.50;;;;;;5029014;28;20609;-71
2021/01/02 05:15:41;;;;;;;21.70;12.10;;;2.90;88.50;;;;;;5027955;28;20171;-71
2021/01/02 05:18:07;;;;;;;26.67;14.30;;;2.90;88.40;;;;;;5029007;28;20500;-70
2021/01/02 05:20:32;;;;;;;23.70;12.10;;;2.90;88.20;;;;;;5028989;28;20397;-70
2021/01/02 05:23:10;;;;;;;22.77;11.70;;;2.90;88.20;;;;;;5028423;28;20607;-69
2021/01/02 05:25:37;;;;;;;27.70;12.70;;;2.90;88.20;;;;;;5029017;28;20412;-70
2021/01/02 05:28:03;;;;;;;29.87;14.60;;;2.90;87.80;;;;;;5028705;28;20428;-72
2021/01/02 05:30:32;;;;;;;29.23;13.23;;;2.90;88.10;;;;;;5028665;28;20727;-71
2021/01/02 05:33:12;;;;;;;28.90;12.77;;;2.80;87.90;;;;;;5028460;28;20467;-71
2021/01/02 05:35:41;;;;;;;29.53;14.40;;;2.90;88.10;;;;;;5029111;28;20417;-71
2021/01/02 05:38:26;;;;;;;21.80;12.20;;;2.90;87.90;;;;;;5028889;28;20610;-69
2021/01/02 05:40:58;;;;;;;23.20;11.50;;;2.90;88.00;;;;;;5028743;28;20499;-71
2021/01/02 05:43:26;;;;;;;27.97;14.40;;;2.90;87.80;;;;;;5043947;28;20429;-71
2021/01/02 05:45:51;;;;;;;22.87;13.00;;;2.90;87.80;;;;;;5032605;28;20416;-71
2021/01/02 05:48:20;;;;;;;26.50;12.50;;;2.90;87.70;;;;;;5032900;28;20417;-70
2021/01/02 05:50:47;;;;;;;25.33;13.00;;;2.90;87.80;;;;;;5032762;28;20182;-72
2021/01/02 05:53:23;;;;;;;23.63;13.80;;;2.90;87.80;;;;;;5032257;28;20914;-71
2021/01/02 05:56:08;;;;;;;27.77;10.93;;;2.90;87.70;;;;;;5032897;28;20393;-71
2021/01/02 05:58:41;;;;;;;25.93;12.63;;;2.90;87.70;;;;;;5032680;28;20757;-70
2021/01/02 06:01:12;;;;;;;23.50;12.53;;;2.80;87.50;;;;;;5030884;28;20424;-71
2021/01/02 06:03:43;;;;;;;22.93;12.97;;;2.80;87.60;;;;;;5031989;28;20743;-70
2021/01/02 06:06:13;;;;;;;25.20;12.50;;;2.80;87.60;;;;;;5032202;28;20738;-70
2021/01/02 06:08:44;;;;;;;22.40;12.07;;;2.80;87.70;;;;;;5032055;28;20421;-70
2021/01/02 06:11:13;;;;;;;25.80;12.37;;;2.80;87.80;;;;;;5030824;28;20427;-72
2021/01/02 06:13:41;;;;;;;21.20;10.87;;;2.80;87.80;;;;;;5030567;28;20449;-71
2021/01/02 06:16:09;;;;;;;26.93;11.57;;;2.80;87.80;;;;;;5030771;28;20453;-70
2021/01/02 06:18:40;;;;;;;22.13;12.80;;;2.90;88.00;;;;;;5032240;28;20409;-71
2021/01/02 06:21:11;;;;;;;25.50;12.90;;;2.80;87.70;;;;;;5032329;28;20910;-68
2021/01/02 06:23:38;;;;;;;24.47;12.90;;;2.80;88.00;;;;;;5030370;28;20441;-71
2021/01/02 06:26:06;;;;;;;23.60;12.03;;;2.80;88.10;;;;;;5032340;28;20428;-70
2021/01/02 06:28:50;;;;;;;19.63;10.60;;;2.90;88.20;;;;;;5031721;28;20504;-72
2021/01/02 06:31:16;;;;;;;26.73;11.20;;;2.90;88.30;;;;;;5032359;28;20809;-70
2021/01/02 06:33:48;;;;;;;23.83;11.33;;;2.90;88.40;;;;;;5031566;28;20453;-71
2021/01/02 06:36:31;;;;;;;19.90;10.80;;;2.90;88.20;;;;;;5032545;28;20902;-70
2021/01/02 06:39:27;;;;;;;28.63;12.93;;;2.90;88.10;;;;;;5031822;28;20435;-71
2021/01/02 06:41:57;;;;;;;21.97;10.80;;;2.90;88.00;;;;;;5031827;28;20458;-71
2021/01/02 06:44:45;;;;;;;24.10;12.20;;;3.00;88.00;;;;;;5031803;28;20401;-70
2021/01/02 06:47:22;;;;;;;20.73;11.40;;;2.90;87.90;;;;;;5032253;28;20719;-70
2021/01/02 06:49:52;;;;;;;20.93;12.80;;;3.00;88.00;;;;;;5032236;28;20416;-71
2021/01/02 06:52:28;;;;;;;25.30;12.63;;;3.00;87.90;;;;;;5031204;28;20468;-70
2021/01/02 06:54:53;;;;;;;25.50;13.77;;;2.90;87.60;;;;;;5030852;28;20765;-70
2021/01/02 06:57:26;;;;;;;23.13;12.00;;;2.90;87.60;;;;;;5031458;28;20401;-70
2021/01/02 06:59:51;;;;;;;26.57;12.67;;;2.90;87.60;;;;;;5031459;28;20185;-70
2021/01/02 07:02:32;;;;;;;22.30;13.07;;;2.90;87.80;;;;;;5029716;28;20968;-70
2021/01/02 07:04:58;;;;;;;27.03;13.13;;;2.90;87.90;;;;;;5031314;28;20220;-71
2021/01/02 07:07:39;;;;;;;24.77;12.50;;;2.90;87.70;;;;;;5029262;28;20496;-71
2021/01/02 07:10:28;;;;;;;24.43;13.03;;;2.90;87.80;;;;;;5031406;28;20182;-71
2021/01/02 07:13:08;;;;;;;26.03;14.80;;;2.90;87.90;;;;;;5030164;28;21103;-69
2021/01/02 07:15:34;;;;;;;19.43;10.90;;;2.90;87.80;;;;;;5031594;28;20431;-71
2021/01/02 07:18:25;;;;;;;24.53;12.43;;;2.90;87.70;;;;;;5030396;28;20393;-70
2021/01/02 07:20:51;;;;;;;26.70;13.87;;;2.90;87.80;;;;;;5031343;28;20166;-71
2021/01/02 07:23:25;;;;;;;24.50;12.27;;;2.90;87.60;;;;;;5029283;28;20433;-72
2021/01/02 07:25:51;;;;;;;22.67;12.17;;;2.90;87.60;;;;;;5031183;28;20452;-70
2021/01/02 07:28:17;;;;;;;26.33;11.00;;;2.90;87.80;;;;;;5031141;28;20590;-69
2021/01/02 07:30:42;;;;;;;24.03;12.70;;;2.90;88.10;;;;;;5031054;28;20665;-70
2021/01/02 07:33:08;;;;;;;19.57;10.40;;;2.90;88.00;;;;;;5030663;28;20567;-71
2021/01/02 07:35:33;;;;;;;30.57;13.63;;;2.90;87.70;;;;;;5030876;28;20162;-70
2021/01/02 07:38:00;;;;;;;25.97;13.07;;;2.90;87.70;;;;;;5029754;28;20170;-70
2021/01/02 07:40:26;;;;;;;28.33;14.00;;;2.90;87.90;;;;;;5031360;28;20177;-70
2021/01/02 07:42:53;;;;;;;23.80;12.50;;;2.90;87.80;;;;;;5030866;28;20425;-71
2021/01/02 07:45:27;;;;;;;25.43;13.73;;;2.90;87.60;;;;;;5030793;28;20167;-69
2021/01/02 07:47:58;;;;;;;20.83;10.43;;;2.90;87.70;;;;;;5031732;28;20405;-71
2021/01/02 07:50:28;;;;;;;24.63;12.60;;;2.90;87.70;;;;;;5030846;28;20437;-70
2021/01/02 07:52:58;;;;;;;27.03;12.47;;;2.90;87.70;;;;;;5030287;28;21000;-71
2021/01/02 07:55:26;;;;;;;27.83;11.93;;;2.90;87.70;;;;;;5029657;28;20933;-70
2021/01/02 07:57:52;;;;;;;21.20;11.73;;;2.90;87.60;;;;;;5030778;28;20435;-70
2021/01/02 08:00:19;;;;;;;22.13;11.00;;;2.90;87.60;;;;;;5031287;28;20409;-71
2021/01/02 08:02:45;;;;;;;24.30;13.17;;;2.90;87.70;;;;;;5029160;28;20738;-70
2021/01/02 08:05:13;;;;;;;25.10;11.50;;;2.90;87.60;;;;;;5030944;28;20413;-71
2021/01/02 08:07:40;;;;;;;29.90;14.00;;;2.90;87.60;;;;;;5030839;28;20445;-71
2021/01/02 08:10:11;;;;;;;30.97;14.00;;;2.90;87.90;;;;;;5045674;28;20504;-70
2021/01/02 08:12:43;;;;;;;27.67;13.77;;;2.90;87.90;;;;;;5028749;28;20861;-71
2021/01/02 08:15:14;;;;;;;22.73;13.77;;;2.90;87.80;;;;;;5032265;28;20405;-71
2021/01/02 08:17:41;;;;;;;27.20;14.33;;;2.90;88.00;;;;;;5036275;28;20448;-69
2021/01/02 08:20:08;;;;;;;27.27;12.13;;;2.90;88.00;;;;;;5034825;28;20425;-69
2021/01/02 08:22:38;;;;;;;27.60;13.00;;;3.00;88.10;;;;;;5028507;28;20548;-70
2021/01/02 08:25:17;;;;;;;27.70;14.07;;;3.00;88.20;;;;;;5029684;28;20967;-71
2021/01/02 08:27:45;;;;;;;30.80;15.50;;;3.00;88.10;;;;;;5030555;28;20412;-70
2021/01/02 08:30:13;;;;;;;27.00;14.40;;;3.00;88.00;;;;;;5030061;28;20420;-70
2021/01/02 08:32:40;;;;;;;26.63;13.50;;;3.00;88.10;;;;;;5028127;28;20460;-69
2021/01/02 08:35:20;;;;;;;24.80;12.77;;;3.10;88.40;;;;;;5029286;28;20417;-71
2021/01/02 08:37:48;;;;;;;31.57;14.50;;;3.10;88.20;;;;;;5029049;28;20490;-70
2021/01/02 08:40:15;;;;;;;23.50;12.87;;;3.10;88.10;;;;;;5029543;28;20452;-69
2021/01/02 08:42:43;;;;;;;27.93;13.07;;;3.10;87.90;;;;;;5029978;28;20447;-69
2021/01/02 08:45:11;;;;;;;25.37;13.17;;;3.10;87.50;;;;;;5028443;28;20740;-70
2021/01/02 08:47:38;;;;;;;27.10;12.17;;;3.10;87.80;;;;;;5032425;28;20415;-71
2021/01/02 08:50:12;;;;;;;30.90;13.27;;;3.10;87.70;;;;;;5029938;28;20456;-69
2021/01/02 08:52:38;;;;;;;24.87;13.90;;;3.10;87.60;;;;;;5029774;28;20457;-68
2021/01/02 08:55:17;;;;;;;21.13;11.50;;;3.10;87.60;;;;;;5029729;28;20490;-68
2021/01/02 08:57:47;;;;;;;26.70;14.20;;;3.10;88.00;;;;;;5029446;28;20754;-69
2021/01/02 09:00:14;;;;;;;27.27;14.50;;;3.10;87.80;;;;;;5030079;28;20432;-70
2021/01/02 09:02:44;;;;;;;31.63;14.37;;;3.20;87.80;;;;;;5031538;28;20500;-70
2021/01/02 09:05:15;;;;;;;22.97;13.10;;;3.20;87.50;;;;;;5031460;28;20511;-69
2021/01/02 09:07:55;;;;;;;28.07;13.07;;;3.20;87.90;;;;;;5031124;28;20745;-72
2021/01/02 09:10:24;;;;;;;27.93;13.80;;;3.30;87.70;;;;;;5030516;28;20474;-70
2021/01/02 09:13:00;;;;;;;31.37;14.00;;;3.30;87.40;;;;;;5029971;28;20502;-70
2021/01/02 09:16:27;;;;;;;25.53;13.10;;;3.30;87.10;;;;;;5031179;28;20419;-69
2021/01/02 09:18:53;;;;;;;31.57;14.50;;;3.40;87.30;;;;;;5020991;28;20479;-69
2021/01/02 09:21:20;;;;;;;27.90;12.77;;;3.40;86.90;;;;;;5033986;28;20408;-70
2021/01/02 09:23:46;;;;;;;18.53;11.33;;;3.40;86.60;;;;;;5033355;28;20261;-69
2021/01/02 09:26:41;;;;;;;30.53;14.43;;;3.40;86.80;;;;;;5034021;28;20948;-69
2021/01/02 09:29:15;;;;;;;27.60;13.70;;;3.40;86.30;;;;;;5008255;28;20487;-69
2021/01/02 09:31:41;;;;;;;26.13;14.40;;;3.40;86.50;;;;;;5033411;28;20428;-71
2021/01/02 09:34:07;;;;;;;26.70;13.30;;;3.40;86.70;;;;;;5033452;28;20486;-69
2021/01/02 09:36:33;;;;;;;22.87;13.07;;;3.50;86.40;;;;;;5034164;28;20417;-70
2021/01/02 09:38:58;;;;;;;24.53;13.17;;;3.50;86.50;;;;;;5033981;28;20441;-69
2021/01/02 09:41:26;;;;;;;34.53;16.67;;;3.50;86.50;;;;;;5033476;28;20173;-69
2021/01/02 09:43:54;;;;;;;28.53;14.63;;;3.60;86.50;;;;;;5033579;28;20222;-70
2021/01/02 09:46:21;;;;;;;22.80;12.87;;;3.70;85.30;;;;;;5032296;28;21093;-69
2021/01/02 09:48:49;;;;;;;30.97;15.13;;;3.70;85.00;;;;;;5032920;28;20408;-70
2021/01/02 09:51:16;;;;;;;23.90;13.17;;;3.80;83.80;;;;;;5034332;28;20766;-69
2021/01/02 09:53:41;;;;;;;24.33;12.53;;;3.90;84.70;;;;;;5033483;28;20457;-69
2021/01/02 09:56:07;;;;;;;27.60;13.10;;;3.90;84.00;;;;;;5032874;28;20918;-70
2021/01/02 09:58:33;;;;;;;25.67;12.77;;;4.00;83.10;;;;;;5034351;28;20523;-70
2021/01/02 10:00:59;;;;;;;25.73;13.70;;;4.10;83.20;;;;;;5033504;28;20408;-69
2021/01/02 10:03:25;;;;;;;23.03;12.63;;;4.20;83.00;;;;;;5033465;28;20820;-70
2021/01/02 10:05:51;;;;;;;26.63;13.07;;;4.30;81.90;;;;;;5035769;28;20409;-70
2021/01/02 10:08:16;;;;;;;22.13;12.90;;;4.30;80.90;;;;;;5040393;28;20928;-69
2021/01/02 10:10:42;;;;;;;28.83;13.77;;;4.40;81.00;;;;;;5042041;28;20163;-69
2021/01/02 10:13:08;;;;;;;25.57;13.23;;;4.50;80.90;;;;;;5041440;28;20286;-69
2021/01/02 10:15:34;;;;;;;21.97;12.60;;;4.60;80.70;;;;;;5042507;28;20233;-70
2021/01/02 10:17:59;;;;;;;28.33;14.53;;;4.70;79.60;;;;;;5024086;28;20417;-70
2021/01/02 10:20:25;;;;;;;23.47;13.67;;;4.70;79.50;;;;;;5040436;28;20555;-71
2021/01/02 10:22:51;;;;;;;25.70;14.73;;;4.70;78.50;;;;;;5039894;28;20186;-70
2021/01/02 10:25:17;;;;;;;29.80;14.97;;;4.70;78.90;;;;;;5041385;28;20425;-69
2021/01/02 10:27:43;;;;;;;33.83;14.40;;;4.70;78.70;;;;;;5040988;28;20421;-70
2021/01/02 10:30:11;;;;;;;26.17;15.10;;;4.80;79.30;;;;;;5040829;28;20287;-70
2021/01/02 10:32:37;;;;;;;21.97;12.10;;;4.90;78.70;;;;;;5048005;28;20457;-73
2021/01/02 10:35:05;;;;;;;21.80;12.67;;;5.00;78.40;;;;;;5067253;28;20465;-72
2021/01/02 10:37:31;;;;;;;25.47;11.93;;;5.10;77.50;;;;;;5035447;28;20521;-72
2021/01/02 10:39:57;;;;;;;24.40;13.23;;;5.10;76.30;;;;;;5033620;28;20492;-73
2021/01/02 10:42:26;;;;;;;27.03;12.97;;;5.00;76.20;;;;;;5031531;28;20514;-73
2021/01/02 10:44:52;;;;;;;28.80;14.07;;;5.10;77.10;;;;;;5033655;28;20170;-71
2021/01/02 10:47:23;;;;;;;25.97;13.80;;;5.10;76.80;;;;;;5033181;28;20436;-73
2021/01/02 10:49:49;;;;;;;21.50;13.57;;;5.10;76.50;;;;;;5034116;28;20924;-72
2021/01/02 10:52:19;;;;;;;22.57;13.40;;;5.00;77.50;;;;;;5033185;28;20457;-71
2021/01/02 10:54:46;;;;;;;23.30;12.27;;;5.00;77.30;;;;;;5031736;28;20409;-71
2021/01/02 10:57:13;;;;;;;23.67;13.40;;;5.00;77.10;;;;;;5032188;28;20432;-71
2021/01/02 10:59:43;;;;;;;25.20;14.47;;;5.00;77.60;;;;;;5033221;28;20429;-72
2021/01/02 11:02:09;;;;;;;24.93;11.67;;;5.10;77.20;;;;;;5033119;28;20417;-72
2021/01/02 11:04:34;;;;;;;26.37;12.90;;;5.20;77.90;;;;;;5032312;28;21045;-71
2021/01/02 11:07:00;;;;;;;26.30;14.50;;;5.20;77.00;;;;;;5031886;28;20445;-72
2021/01/02 11:09:26;;;;;;;23.23;12.27;;;5.20;76.80;;;;;;5032182;28;20167;-71
2021/01/02 11:11:53;;;;;;;26.70;14.33;;;5.30;77.10;;;;;;5030857;28;20504;-72
2021/01/02 11:14:20;;;;;;;24.17;12.67;;;5.30;75.90;;;;;;5031901;28;20701;-71
2021/01/02 11:16:47;;;;;;;25.13;13.03;;;5.20;76.60;;;;;;5031134;28;20467;-72
2021/01/02 11:19:20;;;;;;;26.20;13.83;;;5.20;76.70;;;;;;5032045;28;20460;-73
2021/01/02 11:21:47;;;;;;;23.13;12.30;;;5.20;76.80;;;;;;5033315;28;20417;-73
2021/01/02 11:24:14;;;;;;;23.60;13.53;;;5.20;75.40;;;;;;5032255;28;20434;-71
2021/01/02 11:27:00;;;;;;;23.80;13.50;;;5.20;76.20;;;;;;5031765;28;20419;-71
2021/01/02 11:29:29;;;;;;;30.00;14.03;;;5.20;76.50;;;;;;5047185;28;20926;-72
2021/01/02 11:31:55;;;;;;;24.10;12.80;;;5.20;76.20;;;;;;5030330;28;20431;-72
2021/01/02 11:34:22;;;;;;;29.17;13.97;;;5.20;75.60;;;;;;5031837;28;20409;-72
2021/01/02 11:36:56;;;;;;;22.03;12.83;;;5.20;75.90;;;;;;5031373;28;20428;-72
2021/01/02 11:39:22;;;;;;;26.03;13.67;;;5.20;75.50;;;;;;5031896;28;20402;-72
2021/01/02 11:41:48;;;;;;;23.20;12.83;;;5.20;75.60;;;;;;5030501;28;20519;-73
2021/01/02 11:44:17;;;;;;;24.60;15.30;;;5.20;74.70;;;;;;5031022;28;20890;-72
2021/01/02 11:46:48;;;;;;;23.23;13.33;;;5.20;75.90;;;;;;5031407;28;20185;-72
2021/01/02 11:49:18;;;;;;;29.13;13.97;;;5.20;75.90;;;;;;5031361;28;20407;-72
2021/01/02 11:51:55;;;;;;;27.17;13.03;;;5.30;76.10;;;;;;5030103;28;20452;-72
2021/01/02 11:54:22;;;;;;;26.03;14.10;;;5.30;75.00;;;;;;5030983;28;20448;-72
2021/01/02 11:56:48;;;;;;;26.30;14.60;;;5.20;74.60;;;;;;5031549;28;20425;-72
2021/01/02 11:59:15;;;;;;;23.67;13.27;;;5.20;75.30;;;;;;5031429;28;20425;-72
2021/01/02 12:01:50;;;;;;;21.50;13.33;;;5.10;75.50;;;;;;5030507;28;20516;-72
2021/01/02 12:04:18;;;;;;;30.20;14.90;;;5.00;75.80;;;;;;5029813;28;20454;-72
2021/01/02 12:06:44;;;;;;;26.27;14.47;;;4.90;75.70;;;;;;5030048;28;20435;-72
2021/01/02 12:09:10;;;;;;;29.50;14.60;;;4.90;76.30;;;;;;5031009;28;20437;-72
2021/01/02 12:11:39;;;;;;;25.73;15.03;;;4.90;77.20;;;;;;5031791;28;20163;-73
2021/01/02 12:14:07;;;;;;;25.43;16.07;;;4.90;76.60;;;;;;5046554;28;20429;-72
2021/01/02 12:16:37;;;;;;;29.67;17.00;;;5.00;76.20;;;;;;5030978;28;20492;-72
2021/01/02 12:19:05;;;;;;;26.27;14.57;;;5.00;75.90;;;;;;5030037;28;20449;-73
2021/01/02 12:21:31;;;;;;;161.47;46.50;;;5.10;76.20;;;;;;5031504;28;20398;-75
2021/01/02 12:23:57;;;;;;;27.23;14.90;;;5.10;74.90;;;;;;5035803;28;20436;-73
2021/01/02 12:26:23;;;;;;;24.03;13.90;;;5.10;74.60;;;;;;5034377;28;20170;-73
2021/01/02 12:28:50;;;;;;;25.97;15.40;;;5.00;74.90;;;;;;5032148;28;20278;-73
2021/01/02 12:31:24;;;;;;;27.73;14.37;;;5.00;74.80;;;;;;5032153;28;20401;-74
2021/01/02 12:33:50;;;;;;;27.07;14.40;;;5.00;74.80;;;;;;5032278;28;20467;-72
2021/01/02 12:36:18;;;;;;;27.60;14.23;;;4.90;75.10;;;;;;5031456;28;20409;-72
2021/01/02 12:38:43;;;;;;;26.90;13.93;;;4.90;75.20;;;;;;5047879;28;20666;-72
2021/01/02 12:41:17;;;;;;;27.10;14.60;;;4.80;75.30;;;;;;5031985;28;20405;-72
2021/01/02 12:43:43;;;;;;;21.70;13.10;;;4.70;75.90;;;;;;5029555;28;20690;-73
2021/01/02 12:46:11;;;;;;;25.10;14.17;;;4.70;75.70;;;;;;5029830;28;20467;-72
2021/01/02 12:48:38;;;;;;;29.93;13.90;;;4.70;76.00;;;;;;5032115;28;20436;-73
2021/01/02 12:51:05;;;;;;;30.93;15.00;;;4.70;76.00;;;;;;5032654;28;20414;-73
2021/01/02 12:53:30;;;;;;;25.33;15.17;;;4.70;76.90;;;;;;5038709;28;20587;-73
2021/01/02 12:55:56;;;;;;;27.23;13.83;;;4.80;75.60;;;;;;5035872;28;20460;-73